Aérodrome :
LOGIN :

S'inscrire | Disclaimer

   EN    FR    IT 

 










Légende :    VFR   VFR Marginal   IFR   IFR Intensif   IFR Très Intensif
Visi : 
Plafond : 
>= 8 km
>= 3000ft
5 à 8 km
1000 à 3000 ft
1500m à 5 km
500 à 1000 ft
800 à 1500m
200 à 500 ft
< 800m
< 200 ft
Symboles :   Orages  Brouillard  Fortes neiges  Fortes précipitations  Vent > 20 kt
SIGMETs :   Divers  Orages  Givrage  Turbulence  Onde Orograph.  Cendres Volcan.







- Altitude de l'aérodrome : 1766 ft


ETHL - Laupheim AB

DERNIER METAR :
  • 210440Z VRB01KT 0300 R27/0550N FG BKN001 04/03 Q1022 RED RED

METARs EXPIRÉS :
  • 210433Z VRB01KT 0600 R27/0700D FG BKN001 04/03 Q1022 RED RED
  • 210420Z VRB01KT 1000 R27/0800D VCFG BR FEW001 04/03 Q1022 AMB AMB TEMPO RED
  • 210320Z 19002KT 1200 VCFG BR 05/04 Q1022 AMB
  • 210238Z 16001KT 1800 VCFG BR 05/04 Q1022 YLO
  • 210220Z 27001KT 0700 FG 05/04 Q1022 RED

TAF COR TAF ETHL
Valide du 21 à 05h jusqu'au 21 à 14h UTC


210433Z 2105/2114 VRB03KT 0500 FG VV001
BECMG 2106/2108 VRB03KT 4000 BR FEW010
BECMG 2108/2110 07005KT 9999 NSW FEW030
Pas de NOTAMs connus pour ce terrain.



MET'MAP, la Météo Aéronautique d'un coup d'oeil ! - Copyright ORBIFLY Décembre 2007 - Disclaimer

ORBIFLY MET'MAP TEAM :

Programmation & Développement : Alexandra Zaïnal
Conception & Développement : Baudouin d'Aumeries
Co-Programmation & Développement : Marc-Olivier Méhu
Soutien technique & logistique : Manuel Goepfert

Contact : metmap@orbifly.com




SOURCES & CREDITS :

   NOAA